Alapaha, Georgia
Current Conditions -  °F | °C
As of 5:10 PM on Friday 31 Oct 2014 (Local Time) from KTMA Reporting Station
Clear Clear  
Wind Chill: 70°   Ceiling: Unl
Heat Index: 70°   Visibility: 10mi
Dew Point: 36°   Wind: 10mph
Humidity: 29%   Direction: 290°WNW
Pressure: 29.84"   Gusts: NA
Location:  31.39°N, 83.22°W
Report Text: KTMA 312110Z AUTO 29009KT 10SM CLR 21/02 A2984 RMK AO2 T02120023
Loading
Personal Weather Stations






























Interactive Weather Map
Tropical Storm Tracking
New forecast layout! Learn more

10-Day Weather Forecast

Advertisements
Track Severe Weather on mobile